sensor_id;sensor_type;location;lat;lon;timestamp;temperature;humidity
68480;DHT22;55469;48.934;12.050;2023-03-01T00:01:16;2.40;93.90
68480;DHT22;55469;48.934;12.050;2023-03-01T00:03:44;2.40;93.90
68480;DHT22;55469;48.934;12.050;2023-03-01T00:06:10;2.40;93.90
68480;DHT22;55469;48.934;12.050;2023-03-01T00:08:36;2.40;93.90
68480;DHT22;55469;48.934;12.050;2023-03-01T00:11:05;2.40;93.90
68480;DHT22;55469;48.934;12.050;2023-03-01T00:13:43;2.40;94.00
68480;DHT22;55469;48.934;12.050;2023-03-01T00:16:12;2.30;93.90
68480;DHT22;55469;48.934;12.050;2023-03-01T00:18:39;2.30;94.00
68480;DHT22;55469;48.934;12.050;2023-03-01T00:21:05;2.30;94.00
68480;DHT22;55469;48.934;12.050;2023-03-01T00:23:31;2.30;94.00
68480;DHT22;55469;48.934;12.050;2023-03-01T00:25:59;2.30;94.00
68480;DHT22;55469;48.934;12.050;2023-03-01T00:28:25;2.30;94.00
68480;DHT22;55469;48.934;12.050;2023-03-01T00:30:51;2.30;94.00
68480;DHT22;55469;48.934;12.050;2023-03-01T00:33:16;2.30;94.00
68480;DHT22;55469;48.934;12.050;2023-03-01T00:35:42;2.30;94.00
68480;DHT22;55469;48.934;12.050;2023-03-01T00:38:08;2.20;94.00
68480;DHT22;55469;48.934;12.050;2023-03-01T00:40:35;2.20;93.90
68480;DHT22;55469;48.934;12.050;2023-03-01T00:43:02;2.20;93.90
68480;DHT22;55469;48.934;12.050;2023-03-01T00:45:28;2.20;94.00
68480;DHT22;55469;48.934;12.050;2023-03-01T00:47:56;2.20;94.00
68480;DHT22;55469;48.934;12.050;2023-03-01T00:50:23;2.20;94.00
68480;DHT22;55469;48.934;12.050;2023-03-01T00:52:53;2.20;94.00
68480;DHT22;55469;48.934;12.050;2023-03-01T00:55:19;2.20;94.00
68480;DHT22;55469;48.934;12.050;2023-03-01T00:57:45;2.20;94.10
68480;DHT22;55469;48.934;12.050;2023-03-01T01:00:11;2.20;94.00
68480;DHT22;55469;48.934;12.050;2023-03-01T01:02:37;2.20;94.00
68480;DHT22;55469;48.934;12.050;2023-03-01T01:05:04;2.10;94.00
68480;DHT22;55469;48.934;12.050;2023-03-01T01:07:30;2.10;94.00
68480;DHT22;55469;48.934;12.050;2023-03-01T01:09:55;2.10;93.90
68480;DHT22;55469;48.934;12.050;2023-03-01T01:12:21;2.10;94.10
68480;DHT22;55469;48.934;12.050;2023-03-01T01:14:47;2.10;93.90
68480;DHT22;55469;48.934;12.050;2023-03-01T01:17:13;2.10;93.80
68480;DHT22;55469;48.934;12.050;2023-03-01T01:19:39;2.10;94.00
68480;DHT22;55469;48.934;12.050;2023-03-01T01:22:05;2.10;94.00
68480;DHT22;55469;48.934;12.050;2023-03-01T01:24:30;2.10;94.00
68480;DHT22;55469;48.934;12.050;2023-03-01T01:26:56;2.10;94.10
68480;DHT22;55469;48.934;12.050;2023-03-01T01:29:22;2.10;94.10
68480;DHT22;55469;48.934;12.050;2023-03-01T01:31:48;2.10;94.10
68480;DHT22;55469;48.934;12.050;2023-03-01T01:34:19;2.00;94.10
68480;DHT22;55469;48.934;12.050;2023-03-01T01:36:52;2.10;94.20
68480;DHT22;55469;48.934;12.050;2023-03-01T01:39:20;2.00;94.20
68480;DHT22;55469;48.934;12.050;2023-03-01T01:41:46;2.00;94.20
68480;DHT22;55469;48.934;12.050;2023-03-01T01:44:27;2.10;94.70
68480;DHT22;55469;48.934;12.050;2023-03-01T01:47:04;2.10;94.10
68480;DHT22;55469;48.934;12.050;2023-03-01T01:49:47;2.10;94.10
68480;DHT22;55469;48.934;12.050;2023-03-01T01:52:21;2.00;94.20
68480;DHT22;55469;48.934;12.050;2023-03-01T01:55:00;2.00;94.20
68480;DHT22;55469;48.934;12.050;2023-03-01T01:57:42;2.00;94.20
68480;DHT22;55469;48.934;12.050;2023-03-01T02:00:22;2.00;94.20
68480;DHT22;55469;48.934;12.050;2023-03-01T02:02:52;2.00;94.20
68480;DHT22;55469;48.934;12.050;2023-03-01T02:08:11;2.00;94.20
68480;DHT22;55469;48.934;12.050;2023-03-01T02:10:38;2.00;94.20
68480;DHT22;55469;48.934;12.050;2023-03-01T02:13:05;2.00;94.20
68480;DHT22;55469;48.934;12.050;2023-03-01T02:15:35;2.00;94.20
68480;DHT22;55469;48.934;12.050;2023-03-01T02:18:04;2.00;94.20
68480;DHT22;55469;48.934;12.050;2023-03-01T02:23:24;1.90;94.20
68480;DHT22;55469;48.934;12.050;2023-03-01T02:30:59;2.00;94.20
68480;DHT22;55469;48.934;12.050;2023-03-01T02:33:58;1.90;94.30
68480;DHT22;55469;48.934;12.050;2023-03-01T02:36:52;1.90;94.30
68480;DHT22;55469;48.934;12.050;2023-03-01T02:39:27;1.90;94.30
68480;DHT22;55469;48.934;12.050;2023-03-01T02:41:56;1.90;94.40
68480;DHT22;55469;48.934;12.050;2023-03-01T02:44:22;1.90;94.30
68480;DHT22;55469;48.934;12.050;2023-03-01T02:46:51;1.80;94.30
68480;DHT22;55469;48.934;12.050;2023-03-01T02:49:30;1.80;94.30
68480;DHT22;55469;48.934;12.050;2023-03-01T02:52:22;1.80;94.40
68480;DHT22;55469;48.934;12.050;2023-03-01T02:55:14;1.80;94.40
68480;DHT22;55469;48.934;12.050;2023-03-01T02:57:44;1.80;94.40
68480;DHT22;55469;48.934;12.050;2023-03-01T03:00:17;1.80;94.40
68480;DHT22;55469;48.934;12.050;2023-03-01T03:02:46;1.80;94.50
68480;DHT22;55469;48.934;12.050;2023-03-01T03:05:18;1.70;94.40
68480;DHT22;55469;48.934;12.050;2023-03-01T03:07:54;1.70;94.40
68480;DHT22;55469;48.934;12.050;2023-03-01T03:10:22;1.70;94.40
68480;DHT22;55469;48.934;12.050;2023-03-01T03:12:56;1.70;94.40
68480;DHT22;55469;48.934;12.050;2023-03-01T03:15:24;1.70;94.50
68480;DHT22;55469;48.934;12.050;2023-03-01T03:17:51;1.70;94.50
68480;DHT22;55469;48.934;12.050;2023-03-01T03:20:19;1.70;94.50
68480;DHT22;55469;48.934;12.050;2023-03-01T03:22:50;1.70;94.50
68480;DHT22;55469;48.934;12.050;2023-03-01T03:25:18;1.60;94.50
68480;DHT22;55469;48.934;12.050;2023-03-01T03:27:46;1.60;94.60
68480;DHT22;55469;48.934;12.050;2023-03-01T03:30:18;1.60;94.50
68480;DHT22;55469;48.934;12.050;2023-03-01T03:32:46;1.60;94.60
68480;DHT22;55469;48.934;12.050;2023-03-01T03:35:27;1.60;94.60
68480;DHT22;55469;48.934;12.050;2023-03-01T03:37:58;1.60;94.60
68480;DHT22;55469;48.934;12.050;2023-03-01T03:40:37;1.60;94.60
68480;DHT22;55469;48.934;12.050;2023-03-01T03:43:06;1.60;94.60
68480;DHT22;55469;48.934;12.050;2023-03-01T03:45:34;1.50;94.60
68480;DHT22;55469;48.934;12.050;2023-03-01T03:48:01;1.50;94.60
68480;DHT22;55469;48.934;12.050;2023-03-01T03:50:28;1.50;94.60
68480;DHT22;55469;48.934;12.050;2023-03-01T03:52:54;1.50;94.60
68480;DHT22;55469;48.934;12.050;2023-03-01T03:55:20;1.50;94.60
68480;DHT22;55469;48.934;12.050;2023-03-01T03:57:47;1.50;94.60
68480;DHT22;55469;48.934;12.050;2023-03-01T04:00:18;1.50;94.60
68480;DHT22;55469;48.934;12.050;2023-03-01T04:02:46;1.50;94.60
68480;DHT22;55469;48.934;12.050;2023-03-01T04:05:14;1.50;94.70
68480;DHT22;55469;48.934;12.050;2023-03-01T04:07:42;1.50;94.70
68480;DHT22;55469;48.934;12.050;2023-03-01T04:10:10;1.50;94.70
68480;DHT22;55469;48.934;12.050;2023-03-01T04:12:41;1.50;94.70
68480;DHT22;55469;48.934;12.050;2023-03-01T04:15:13;1.50;94.70
68480;DHT22;55469;48.934;12.050;2023-03-01T04:17:47;1.40;94.60
68480;DHT22;55469;48.934;12.050;2023-03-01T04:20:17;1.40;94.70
68480;DHT22;55469;48.934;12.050;2023-03-01T04:22:51;1.40;94.70
68480;DHT22;55469;48.934;12.050;2023-03-01T04:25:40;1.40;94.70
68480;DHT22;55469;48.934;12.050;2023-03-01T04:28:22;1.40;94.70
68480;DHT22;55469;48.934;12.050;2023-03-01T04:30:53;1.40;94.70
68480;DHT22;55469;48.934;12.050;2023-03-01T04:33:20;1.40;94.70
68480;DHT22;55469;48.934;12.050;2023-03-01T04:35:46;1.30;94.70
68480;DHT22;55469;48.934;12.050;2023-03-01T04:38:15;1.30;94.70
68480;DHT22;55469;48.934;12.050;2023-03-01T04:40:41;1.30;94.70
68480;DHT22;55469;48.934;12.050;2023-03-01T04:43:09;1.30;94.70
68480;DHT22;55469;48.934;12.050;2023-03-01T04:45:36;1.30;94.70
68480;DHT22;55469;48.934;12.050;2023-03-01T04:48:02;1.30;94.60
68480;DHT22;55469;48.934;12.050;2023-03-01T04:50:29;1.30;94.70
68480;DHT22;55469;48.934;12.050;2023-03-01T04:52:55;1.30;94.70
68480;DHT22;55469;48.934;12.050;2023-03-01T04:55:24;1.20;94.70
68480;DHT22;55469;48.934;12.050;2023-03-01T04:57:53;1.30;94.80
68480;DHT22;55469;48.934;12.050;2023-03-01T05:00:19;1.20;94.70
68480;DHT22;55469;48.934;12.050;2023-03-01T05:02:53;1.20;94.80
68480;DHT22;55469;48.934;12.050;2023-03-01T05:05:24;1.20;94.70
68480;DHT22;55469;48.934;12.050;2023-03-01T05:07:59;1.30;94.80
68480;DHT22;55469;48.934;12.050;2023-03-01T05:10:28;1.20;94.70
68480;DHT22;55469;48.934;12.050;2023-03-01T05:12:59;1.20;94.70
68480;DHT22;55469;48.934;12.050;2023-03-01T05:15:29;1.20;94.80
68480;DHT22;55469;48.934;12.050;2023-03-01T05:17:58;1.20;94.70
68480;DHT22;55469;48.934;12.050;2023-03-01T05:20:26;1.20;94.80
68480;DHT22;55469;48.934;12.050;2023-03-01T05:22:55;1.20;94.80
68480;DHT22;55469;48.934;12.050;2023-03-01T05:25:22;1.20;94.70
68480;DHT22;55469;48.934;12.050;2023-03-01T05:27:48;1.20;94.70
68480;DHT22;55469;48.934;12.050;2023-03-01T05:30:14;1.10;94.70
68480;DHT22;55469;48.934;12.050;2023-03-01T05:32:42;1.10;94.70
68480;DHT22;55469;48.934;12.050;2023-03-01T05:35:13;1.10;94.70
68480;DHT22;55469;48.934;12.050;2023-03-01T05:37:44;1.10;94.70
68480;DHT22;55469;48.934;12.050;2023-03-01T05:40:13;1.10;94.80
68480;DHT22;55469;48.934;12.050;2023-03-01T05:42:49;1.10;94.70
68480;DHT22;55469;48.934;12.050;2023-03-01T05:45:23;1.10;94.80
68480;DHT22;55469;48.934;12.050;2023-03-01T05:47:50;1.10;94.80
68480;DHT22;55469;48.934;12.050;2023-03-01T05:50:22;1.10;94.70
68480;DHT22;55469;48.934;12.050;2023-03-01T05:52:56;1.00;94.80
68480;DHT22;55469;48.934;12.050;2023-03-01T05:55:31;1.00;95.30
68480;DHT22;55469;48.934;12.050;2023-03-01T05:58:01;1.00;94.70
68480;DHT22;55469;48.934;12.050;2023-03-01T06:00:29;1.00;94.80
68480;DHT22;55469;48.934;12.050;2023-03-01T06:02:57;1.00;94.80
68480;DHT22;55469;48.934;12.050;2023-03-01T06:05:24;1.00;94.80
68480;DHT22;55469;48.934;12.050;2023-03-01T06:07:51;1.00;94.80
68480;DHT22;55469;48.934;12.050;2023-03-01T06:10:20;1.00;94.80
68480;DHT22;55469;48.934;12.050;2023-03-01T06:12:48;1.00;95.20
68480;DHT22;55469;48.934;12.050;2023-03-01T06:15:15;1.00;94.80
68480;DHT22;55469;48.934;12.050;2023-03-01T06:17:43;1.00;94.80
68480;DHT22;55469;48.934;12.050;2023-03-01T06:20:14;0.90;94.80
68480;DHT22;55469;48.934;12.050;2023-03-01T06:22:41;0.90;94.80
68480;DHT22;55469;48.934;12.050;2023-03-01T06:25:07;0.90;94.80
68480;DHT22;55469;48.934;12.050;2023-03-01T06:27:33;0.90;94.70
68480;DHT22;55469;48.934;12.050;2023-03-01T06:29:59;1.00;94.80
68480;DHT22;55469;48.934;12.050;2023-03-01T06:32:25;1.00;94.70
68480;DHT22;55469;48.934;12.050;2023-03-01T06:34:51;1.00;94.70
68480;DHT22;55469;48.934;12.050;2023-03-01T06:37:16;1.00;94.70
68480;DHT22;55469;48.934;12.050;2023-03-01T06:39:42;1.00;94.60
68480;DHT22;55469;48.934;12.050;2023-03-01T06:42:08;1.00;94.60
68480;DHT22;55469;48.934;12.050;2023-03-01T06:44:37;1.00;94.60
68480;DHT22;55469;48.934;12.050;2023-03-01T06:47:04;0.90;94.60
68480;DHT22;55469;48.934;12.050;2023-03-01T06:49:31;0.90;94.60
68480;DHT22;55469;48.934;12.050;2023-03-01T06:51:56;0.90;94.60
68480;DHT22;55469;48.934;12.050;2023-03-01T06:54:22;0.90;94.60
68480;DHT22;55469;48.934;12.050;2023-03-01T06:56:49;1.00;94.60
68480;DHT22;55469;48.934;12.050;2023-03-01T06:59:15;1.00;94.60
68480;DHT22;55469;48.934;12.050;2023-03-01T07:01:42;1.00;94.50
68480;DHT22;55469;48.934;12.050;2023-03-01T07:04:07;1.00;94.50
68480;DHT22;55469;48.934;12.050;2023-03-01T07:06:33;1.00;94.50
68480;DHT22;55469;48.934;12.050;2023-03-01T07:09:00;1.00;94.40
68480;DHT22;55469;48.934;12.050;2023-03-01T07:11:25;1.00;94.40
68480;DHT22;55469;48.934;12.050;2023-03-01T07:13:51;1.00;94.90
68480;DHT22;55469;48.934;12.050;2023-03-01T07:16:17;1.00;94.40
68480;DHT22;55469;48.934;12.050;2023-03-01T07:18:43;0.90;94.40
68480;DHT22;55469;48.934;12.050;2023-03-01T07:21:11;1.00;94.40
68480;DHT22;55469;48.934;12.050;2023-03-01T07:23:38;1.00;94.40
68480;DHT22;55469;48.934;12.050;2023-03-01T07:26:03;1.00;94.30
68480;DHT22;55469;48.934;12.050;2023-03-01T07:28:30;1.00;94.30
68480;DHT22;55469;48.934;12.050;2023-03-01T07:31:01;1.00;94.30
68480;DHT22;55469;48.934;12.050;2023-03-01T07:33:27;1.00;94.20
68480;DHT22;55469;48.934;12.050;2023-03-01T07:35:58;1.00;94.20
68480;DHT22;55469;48.934;12.050;2023-03-01T07:38:24;1.00;94.20
68480;DHT22;55469;48.934;12.050;2023-03-01T07:40:50;1.00;94.20
68480;DHT22;55469;48.934;12.050;2023-03-01T07:43:16;1.00;94.20
68480;DHT22;55469;48.934;12.050;2023-03-01T07:45:42;1.10;94.10
68480;DHT22;55469;48.934;12.050;2023-03-01T07:48:08;1.10;94.10
68480;DHT22;55469;48.934;12.050;2023-03-01T07:50:33;1.10;94.10
68480;DHT22;55469;48.934;12.050;2023-03-01T07:52:59;1.10;94.00
68480;DHT22;55469;48.934;12.050;2023-03-01T07:55:25;1.10;93.90
68480;DHT22;55469;48.934;12.050;2023-03-01T07:57:50;1.10;93.90
68480;DHT22;55469;48.934;12.050;2023-03-01T08:00:16;1.20;93.90
68480;DHT22;55469;48.934;12.050;2023-03-01T08:02:42;1.20;93.90
68480;DHT22;55469;48.934;12.050;2023-03-01T08:05:09;1.20;93.90
68480;DHT22;55469;48.934;12.050;2023-03-01T08:07:35;1.20;93.80
68480;DHT22;55469;48.934;12.050;2023-03-01T08:10:01;1.20;93.80
68480;DHT22;55469;48.934;12.050;2023-03-01T08:12:26;1.20;93.80
68480;DHT22;55469;48.934;12.050;2023-03-01T08:14:53;1.20;93.80
68480;DHT22;55469;48.934;12.050;2023-03-01T08:17:19;1.20;93.80
68480;DHT22;55469;48.934;12.050;2023-03-01T08:19:45;1.20;93.70
68480;DHT22;55469;48.934;12.050;2023-03-01T08:22:11;1.30;93.70
68480;DHT22;55469;48.934;12.050;2023-03-01T08:24:37;1.30;93.70
68480;DHT22;55469;48.934;12.050;2023-03-01T08:27:03;1.30;93.70
68480;DHT22;55469;48.934;12.050;2023-03-01T08:29:30;1.20;93.80
68480;DHT22;55469;48.934;12.050;2023-03-01T08:31:57;1.20;93.90
68480;DHT22;55469;48.934;12.050;2023-03-01T08:34:22;1.20;93.90
68480;DHT22;55469;48.934;12.050;2023-03-01T08:36:48;1.20;94.00
68480;DHT22;55469;48.934;12.050;2023-03-01T08:39:16;1.20;94.40
68480;DHT22;55469;48.934;12.050;2023-03-01T08:41:43;1.30;94.00
68480;DHT22;55469;48.934;12.050;2023-03-01T08:44:10;1.20;93.90
68480;DHT22;55469;48.934;12.050;2023-03-01T08:46:39;1.30;94.00
68480;DHT22;55469;48.934;12.050;2023-03-01T08:49:07;1.30;93.90
68480;DHT22;55469;48.934;12.050;2023-03-01T08:51:37;1.30;93.90
68480;DHT22;55469;48.934;12.050;2023-03-01T08:54:14;1.30;93.80
68480;DHT22;55469;48.934;12.050;2023-03-01T08:56:42;1.30;93.80
68480;DHT22;55469;48.934;12.050;2023-03-01T08:59:10;1.30;93.70
68480;DHT22;55469;48.934;12.050;2023-03-01T09:01:36;1.40;93.60
68480;DHT22;55469;48.934;12.050;2023-03-01T09:04:03;1.40;93.50
68480;DHT22;55469;48.934;12.050;2023-03-01T09:06:33;1.40;93.50
68480;DHT22;55469;48.934;12.050;2023-03-01T09:09:00;1.40;93.50
68480;DHT22;55469;48.934;12.050;2023-03-01T09:11:27;1.40;93.50
68480;DHT22;55469;48.934;12.050;2023-03-01T09:13:53;1.50;93.40
68480;DHT22;55469;48.934;12.050;2023-03-01T09:16:20;1.50;93.30
68480;DHT22;55469;48.934;12.050;2023-03-01T09:18:49;1.50;93.40
68480;DHT22;55469;48.934;12.050;2023-03-01T09:21:18;1.50;93.30
68480;DHT22;55469;48.934;12.050;2023-03-01T09:23:46;1.60;93.40
68480;DHT22;55469;48.934;12.050;2023-03-01T09:26:15;1.60;93.30
68480;DHT22;55469;48.934;12.050;2023-03-01T09:28:45;1.70;93.30
68480;DHT22;55469;48.934;12.050;2023-03-01T09:31:12;1.60;93.20
68480;DHT22;55469;48.934;12.050;2023-03-01T09:33:39;1.70;93.30
68480;DHT22;55469;48.934;12.050;2023-03-01T09:36:08;1.70;93.20
68480;DHT22;55469;48.934;12.050;2023-03-01T09:38:37;1.70;93.10
68480;DHT22;55469;48.934;12.050;2023-03-01T09:41:08;1.80;93.00
68480;DHT22;55469;48.934;12.050;2023-03-01T09:43:47;1.80;93.10
68480;DHT22;55469;48.934;12.050;2023-03-01T09:46:20;1.90;93.10
68480;DHT22;55469;48.934;12.050;2023-03-01T09:48:55;1.90;93.00
68480;DHT22;55469;48.934;12.050;2023-03-01T09:51:30;1.90;93.00
68480;DHT22;55469;48.934;12.050;2023-03-01T09:53:57;2.00;93.00
68480;DHT22;55469;48.934;12.050;2023-03-01T09:56:30;2.00;92.90
68480;DHT22;55469;48.934;12.050;2023-03-01T09:59:23;2.10;92.90
68480;DHT22;55469;48.934;12.050;2023-03-01T10:02:05;2.10;92.80
68480;DHT22;55469;48.934;12.050;2023-03-01T10:04:50;2.20;92.70
68480;DHT22;55469;48.934;12.050;2023-03-01T10:07:42;2.20;92.70
68480;DHT22;55469;48.934;12.050;2023-03-01T10:10:25;2.30;92.60
68480;DHT22;55469;48.934;12.050;2023-03-01T10:12:53;2.30;92.60
68480;DHT22;55469;48.934;12.050;2023-03-01T10:16:03;2.30;92.60
68480;DHT22;55469;48.934;12.050;2023-03-01T10:18:39;2.30;92.50
68480;DHT22;55469;48.934;12.050;2023-03-01T10:21:15;2.40;92.50
68480;DHT22;55469;48.934;12.050;2023-03-01T10:23:44;2.40;92.40
68480;DHT22;55469;48.934;12.050;2023-03-01T10:29:13;2.50;92.30
68480;DHT22;55469;48.934;12.050;2023-03-01T10:31:50;2.50;92.30
68480;DHT22;55469;48.934;12.050;2023-03-01T10:36:47;2.60;92.20
68480;DHT22;55469;48.934;12.050;2023-03-01T10:39:25;2.60;92.10
68480;DHT22;55469;48.934;12.050;2023-03-01T10:42:00;2.60;92.10
68480;DHT22;55469;48.934;12.050;2023-03-01T10:44:58;2.70;92.10
68480;DHT22;55469;48.934;12.050;2023-03-01T10:48:18;2.70;91.90
68480;DHT22;55469;48.934;12.050;2023-03-01T10:50:51;2.80;92.00
68480;DHT22;55469;48.934;12.050;2023-03-01T10:53:41;2.80;92.00
68480;DHT22;55469;48.934;12.050;2023-03-01T10:56:13;2.80;91.90
68480;DHT22;55469;48.934;12.050;2023-03-01T10:59:00;2.80;91.80
68480;DHT22;55469;48.934;12.050;2023-03-01T11:01:30;2.90;91.90
68480;DHT22;55469;48.934;12.050;2023-03-01T11:06:34;2.90;91.80
68480;DHT22;55469;48.934;12.050;2023-03-01T11:09:21;2.90;91.80
68480;DHT22;55469;48.934;12.050;2023-03-01T11:11:53;3.00;91.70
68480;DHT22;55469;48.934;12.050;2023-03-01T11:14:25;3.00;91.70
68480;DHT22;55469;48.934;12.050;2023-03-01T11:17:03;3.10;91.60
68480;DHT22;55469;48.934;12.050;2023-03-01T11:19:32;3.10;91.60
68480;DHT22;55469;48.934;12.050;2023-03-01T11:22:18;3.10;91.60
68480;DHT22;55469;48.934;12.050;2023-03-01T11:24:51;3.20;91.70
68480;DHT22;55469;48.934;12.050;2023-03-01T11:27:25;3.10;91.70
68480;DHT22;55469;48.934;12.050;2023-03-01T11:33:19;3.20;91.70
68480;DHT22;55469;48.934;12.050;2023-03-01T11:36:01;3.20;91.70
68480;DHT22;55469;48.934;12.050;2023-03-01T11:38:34;3.20;91.60
68480;DHT22;55469;48.934;12.050;2023-03-01T11:41:19;3.30;91.60
68480;DHT22;55469;48.934;12.050;2023-03-01T11:55:08;3.40;91.50
68480;DHT22;55469;48.934;12.050;2023-03-01T12:01:06;3.50;91.60
68480;DHT22;55469;48.934;12.050;2023-03-01T12:06:56;3.50;91.60
68480;DHT22;55469;48.934;12.050;2023-03-01T12:13:10;3.60;91.60
68480;DHT22;55469;48.934;12.050;2023-03-01T12:18:41;3.60;91.60
68480;DHT22;55469;48.934;12.050;2023-03-01T12:21:52;3.60;91.50
68480;DHT22;55469;48.934;12.050;2023-03-01T12:38:48;3.70;91.50
68480;DHT22;55469;48.934;12.050;2023-03-01T12:44:40;3.70;91.60
68480;DHT22;55469;48.934;12.050;2023-03-01T12:47:50;3.70;91.60
68480;DHT22;55469;48.934;12.050;2023-03-01T12:50:23;3.70;91.60
68480;DHT22;55469;48.934;12.050;2023-03-01T12:52:53;3.70;91.60
68480;DHT22;55469;48.934;12.050;2023-03-01T12:55:37;3.70;91.60
68480;DHT22;55469;48.934;12.050;2023-03-01T13:07:21;3.80;91.60
68480;DHT22;55469;48.934;12.050;2023-03-01T13:13:21;3.80;91.60
68480;DHT22;55469;48.934;12.050;2023-03-01T13:15:51;3.80;91.70
68480;DHT22;55469;48.934;12.050;2023-03-01T13:20:50;3.90;91.70
68480;DHT22;55469;48.934;12.050;2023-03-01T13:33:47;4.00;91.70
68480;DHT22;55469;48.934;12.050;2023-03-01T13:44:21;4.00;91.80
68480;DHT22;55469;48.934;12.050;2023-03-01T13:46:51;4.00;91.70
68480;DHT22;55469;48.934;12.050;2023-03-01T13:49:30;4.00;91.80
68480;DHT22;55469;48.934;12.050;2023-03-01T13:52:13;4.00;91.90
68480;DHT22;55469;48.934;12.050;2023-03-01T13:54:55;4.00;91.80
68480;DHT22;55469;48.934;12.050;2023-03-01T13:57:26;4.00;91.80
68480;DHT22;55469;48.934;12.050;2023-03-01T13:59:55;4.10;91.80
68480;DHT22;55469;48.934;12.050;2023-03-01T14:02:21;4.10;91.80
68480;DHT22;55469;48.934;12.050;2023-03-01T14:05:00;4.10;91.70
68480;DHT22;55469;48.934;12.050;2023-03-01T14:07:27;4.10;91.70
68480;DHT22;55469;48.934;12.050;2023-03-01T14:10:05;4.10;91.70
68480;DHT22;55469;48.934;12.050;2023-03-01T14:15:37;4.10;91.70
68480;DHT22;55469;48.934;12.050;2023-03-01T14:20:47;4.20;91.70
68480;DHT22;55469;48.934;12.050;2023-03-01T14:23:20;4.20;91.70
68480;DHT22;55469;48.934;12.050;2023-03-01T14:25:51;4.20;91.60
68480;DHT22;55469;48.934;12.050;2023-03-01T14:28:30;4.20;91.70
68480;DHT22;55469;48.934;12.050;2023-03-01T14:31:00;4.20;91.70
68480;DHT22;55469;48.934;12.050;2023-03-01T14:33:32;4.20;91.80
68480;DHT22;55469;48.934;12.050;2023-03-01T14:36:00;4.20;91.80
68480;DHT22;55469;48.934;12.050;2023-03-01T14:38:43;4.20;91.80
68480;DHT22;55469;48.934;12.050;2023-03-01T14:41:20;4.20;91.70
68480;DHT22;55469;48.934;12.050;2023-03-01T14:43:57;4.30;91.70
68480;DHT22;55469;48.934;12.050;2023-03-01T14:46:31;4.30;91.80
68480;DHT22;55469;48.934;12.050;2023-03-01T14:49:07;4.30;91.80
68480;DHT22;55469;48.934;12.050;2023-03-01T14:51:37;4.30;91.80
68480;DHT22;55469;48.934;12.050;2023-03-01T14:54:24;4.30;91.80
68480;DHT22;55469;48.934;12.050;2023-03-01T14:56:54;4.30;91.80
68480;DHT22;55469;48.934;12.050;2023-03-01T14:59:24;4.30;91.80
68480;DHT22;55469;48.934;12.050;2023-03-01T15:01:53;4.30;91.80
68480;DHT22;55469;48.934;12.050;2023-03-01T15:04:23;4.30;91.80
68480;DHT22;55469;48.934;12.050;2023-03-01T15:06:54;4.30;91.80
68480;DHT22;55469;48.934;12.050;2023-03-01T15:09:21;4.30;91.80
68480;DHT22;55469;48.934;12.050;2023-03-01T15:11:48;4.30;91.80
68480;DHT22;55469;48.934;12.050;2023-03-01T15:14:41;4.30;91.80
68480;DHT22;55469;48.934;12.050;2023-03-01T15:17:40;4.40;91.80
68480;DHT22;55469;48.934;12.050;2023-03-01T15:20:15;4.40;91.80
68480;DHT22;55469;48.934;12.050;2023-03-01T15:22:44;4.40;91.80
68480;DHT22;55469;48.934;12.050;2023-03-01T15:25:23;4.40;91.90
68480;DHT22;55469;48.934;12.050;2023-03-01T15:27:51;4.40;91.90
68480;DHT22;55469;48.934;12.050;2023-03-01T15:30:24;4.40;91.80
68480;DHT22;55469;48.934;12.050;2023-03-01T15:35:53;4.40;91.90
68480;DHT22;55469;48.934;12.050;2023-03-01T15:41:21;4.40;92.00
68480;DHT22;55469;48.934;12.050;2023-03-01T15:43:48;4.40;92.00
68480;DHT22;55469;48.934;12.050;2023-03-01T15:46:25;4.40;92.00
68480;DHT22;55469;48.934;12.050;2023-03-01T15:49:04;4.40;92.00
68480;DHT22;55469;48.934;12.050;2023-03-01T15:51:36;4.40;92.10
68480;DHT22;55469;48.934;12.050;2023-03-01T15:54:13;4.40;92.10
68480;DHT22;55469;48.934;12.050;2023-03-01T15:56:43;4.40;92.20
68480;DHT22;55469;48.934;12.050;2023-03-01T15:59:10;4.40;92.20
68480;DHT22;55469;48.934;12.050;2023-03-01T16:01:40;4.40;92.20
68480;DHT22;55469;48.934;12.050;2023-03-01T16:04:08;4.40;92.10
68480;DHT22;55469;48.934;12.050;2023-03-01T16:06:50;4.40;92.10
68480;DHT22;55469;48.934;12.050;2023-03-01T16:09:21;4.40;92.10
68480;DHT22;55469;48.934;12.050;2023-03-01T16:11:51;4.50;92.10
68480;DHT22;55469;48.934;12.050;2023-03-01T16:14:18;4.50;92.30
68480;DHT22;55469;48.934;12.050;2023-03-01T16:16:44;4.50;92.30
68480;DHT22;55469;48.934;12.050;2023-03-01T16:19:11;4.40;92.20
68480;DHT22;55469;48.934;12.050;2023-03-01T16:21:37;4.40;92.20
68480;DHT22;55469;48.934;12.050;2023-03-01T16:24:03;4.40;92.20
68480;DHT22;55469;48.934;12.050;2023-03-01T16:26:29;4.50;92.10
68480;DHT22;55469;48.934;12.050;2023-03-01T16:28:56;4.40;92.20
68480;DHT22;55469;48.934;12.050;2023-03-01T16:31:23;4.50;92.30
68480;DHT22;55469;48.934;12.050;2023-03-01T16:33:53;4.40;92.30
68480;DHT22;55469;48.934;12.050;2023-03-01T16:36:21;4.50;92.40
68480;DHT22;55469;48.934;12.050;2023-03-01T16:38:51;4.40;92.50
68480;DHT22;55469;48.934;12.050;2023-03-01T16:41:19;4.40;92.30
68480;DHT22;55469;48.934;12.050;2023-03-01T16:43:46;4.40;92.40
68480;DHT22;55469;48.934;12.050;2023-03-01T16:46:23;4.40;92.40
68480;DHT22;55469;48.934;12.050;2023-03-01T16:48:51;4.40;92.40
68480;DHT22;55469;48.934;12.050;2023-03-01T16:51:18;4.40;92.50
68480;DHT22;55469;48.934;12.050;2023-03-01T16:53:44;4.40;92.40
68480;DHT22;55469;48.934;12.050;2023-03-01T16:56:11;4.40;92.40
68480;DHT22;55469;48.934;12.050;2023-03-01T16:58:39;4.40;92.50
68480;DHT22;55469;48.934;12.050;2023-03-01T17:01:07;4.40;92.30
68480;DHT22;55469;48.934;12.050;2023-03-01T17:03:36;4.40;92.50
68480;DHT22;55469;48.934;12.050;2023-03-01T17:06:10;4.40;92.50
68480;DHT22;55469;48.934;12.050;2023-03-01T17:08:37;4.40;92.50
68480;DHT22;55469;48.934;12.050;2023-03-01T17:11:15;4.30;92.60
68480;DHT22;55469;48.934;12.050;2023-03-01T17:13:43;4.40;92.60
68480;DHT22;55469;48.934;12.050;2023-03-01T17:16:11;4.30;92.60
68480;DHT22;55469;48.934;12.050;2023-03-01T17:18:38;4.40;92.60
68480;DHT22;55469;48.934;12.050;2023-03-01T17:21:05;4.40;92.50
68480;DHT22;55469;48.934;12.050;2023-03-01T17:23:32;4.30;92.50
68480;DHT22;55469;48.934;12.050;2023-03-01T17:25:59;4.30;92.60
68480;DHT22;55469;48.934;12.050;2023-03-01T17:28:27;4.30;92.60
68480;DHT22;55469;48.934;12.050;2023-03-01T17:30:55;4.30;92.70
68480;DHT22;55469;48.934;12.050;2023-03-01T17:33:21;4.30;92.70
68480;DHT22;55469;48.934;12.050;2023-03-01T17:35:48;4.30;92.70
68480;DHT22;55469;48.934;12.050;2023-03-01T17:38:15;4.30;92.70
68480;DHT22;55469;48.934;12.050;2023-03-01T17:40:42;4.30;92.70
68480;DHT22;55469;48.934;12.050;2023-03-01T17:43:11;4.30;92.70